Time;durP1;ratioP1;P1;durP2;ratioP2;P2;SDS_P1;SDS_P2;PMS_P1;PMS_P2;Temp;Humidity;BMP_temperature;BMP_pressure;BME280_temperature;BME280_humidity;BME280_pressure;Samples;Min_cycle;Max_cycle;Signal;HPM_P1;HPM_P2
2023/12/12 00:02:09;;;;;;;3.83;1.05;;;9.70;99.90;;;;;;5038328;28;20029;-65
2023/12/12 00:04:35;;;;;;;2.42;0.93;;;9.70;99.90;;;;;;5031033;28;20060;-65
2023/12/12 00:07:01;;;;;;;1.65;0.65;;;9.70;99.90;;;;;;5038233;28;20516;-65
2023/12/12 00:09:27;;;;;;;3.13;0.90;;;9.70;99.90;;;;;;5043809;28;20036;-65
2023/12/12 00:11:54;;;;;;;0.70;0.65;;;9.70;99.90;;;;;;5043809;28;20059;-65
2023/12/12 00:14:20;;;;;;;1.58;0.80;;;9.70;99.90;;;;;;5041324;28;20067;-65
2023/12/12 00:16:46;;;;;;;2.47;0.70;;;9.70;99.90;;;;;;5039326;28;20536;-65
2023/12/12 00:19:11;;;;;;;0.95;0.57;;;9.70;99.90;;;;;;5031768;28;20061;-65
2023/12/12 00:21:37;;;;;;;0.93;0.50;;;9.70;99.90;;;;;;5042001;28;20666;-65
2023/12/12 00:24:03;;;;;;;0.50;0.40;;;9.70;99.90;;;;;;5035184;28;20036;-65
2023/12/12 00:26:29;;;;;;;1.17;0.32;;;9.60;99.90;;;;;;5042953;28;20086;-65
2023/12/12 00:28:55;;;;;;;0.63;0.30;;;9.60;99.90;;;;;;5041119;28;20529;-65
2023/12/12 00:31:21;;;;;;;0.50;0.50;;;9.60;99.90;;;;;;5044379;28;20031;-66
2023/12/12 00:33:47;;;;;;;0.57;0.57;;;9.60;99.90;;;;;;5040390;28;20032;-65
2023/12/12 00:36:13;;;;;;;0.55;0.50;;;9.60;99.90;;;;;;5044596;28;20029;-65
2023/12/12 00:38:38;;;;;;;0.98;0.40;;;9.60;99.90;;;;;;5044373;28;20033;-65
2023/12/12 00:41:04;;;;;;;0.75;0.57;;;9.60;99.90;;;;;;5044195;28;20032;-65
2023/12/12 00:43:31;;;;;;;2.00;0.60;;;9.60;99.90;;;;;;5044466;28;20140;-65
2023/12/12 00:45:56;;;;;;;2.33;0.63;;;9.50;99.90;;;;;;5042512;28;20033;-65
2023/12/12 00:48:22;;;;;;;2.25;0.55;;;9.50;99.90;;;;;;5040982;28;20036;-65
2023/12/12 00:50:48;;;;;;;1.55;0.63;;;9.50;99.90;;;;;;5045564;28;20031;-65
2023/12/12 00:53:14;;;;;;;1.90;0.60;;;9.50;99.90;;;;;;5046596;28;20037;-65
2023/12/12 00:55:41;;;;;;;0.95;0.60;;;9.50;99.90;;;;;;5043862;28;20037;-65
2023/12/12 00:58:07;;;;;;;2.03;0.90;;;9.50;99.90;;;;;;5037114;28;20037;-65
2023/12/12 01:00:33;;;;;;;1.27;0.68;;;9.50;99.90;;;;;;5038428;28;20040;-65
2023/12/12 01:02:58;;;;;;;0.77;0.70;;;9.50;99.90;;;;;;5045691;28;20102;-65
2023/12/12 01:05:25;;;;;;;2.53;0.68;;;9.50;99.90;;;;;;5045994;28;20107;-65
2023/12/12 01:07:50;;;;;;;2.75;0.88;;;9.40;99.90;;;;;;5044807;28;20033;-65
2023/12/12 01:10:16;;;;;;;0.90;0.75;;;9.40;99.90;;;;;;5047559;28;20025;-65
2023/12/12 01:12:42;;;;;;;5.60;0.93;;;9.50;99.90;;;;;;5048284;28;20036;-65
2023/12/12 01:15:08;;;;;;;3.72;1.20;;;9.50;99.90;;;;;;5045539;28;20029;-65
2023/12/12 01:17:34;;;;;;;2.78;1.25;;;9.50;99.90;;;;;;5048932;28;20090;-65
2023/12/12 01:20:00;;;;;;;2.70;0.98;;;9.50;99.90;;;;;;5048002;28;20436;-65
2023/12/12 01:22:26;;;;;;;5.45;1.00;;;9.50;99.90;;;;;;5046473;28;20531;-65
2023/12/12 01:24:52;;;;;;;3.65;0.95;;;9.50;99.90;;;;;;5042646;28;20405;-65
2023/12/12 01:27:17;;;;;;;1.27;0.88;;;9.50;99.90;;;;;;5048104;28;20474;-65
2023/12/12 01:29:43;;;;;;;2.05;1.27;;;9.40;99.90;;;;;;5037030;28;20033;-65
2023/12/12 01:32:09;;;;;;;1.92;0.90;;;9.40;99.90;;;;;;5031581;28;20038;-65
2023/12/12 01:34:35;;;;;;;3.42;1.17;;;9.40;99.90;;;;;;5047914;28;20309;-65
2023/12/12 01:37:01;;;;;;;3.13;1.10;;;9.40;99.90;;;;;;5043077;28;20037;-65
2023/12/12 01:39:27;;;;;;;1.15;0.82;;;9.40;99.90;;;;;;5046115;28;20138;-65
2023/12/12 01:41:53;;;;;;;3.40;1.20;;;9.40;99.90;;;;;;5047545;28;20028;-65
2023/12/12 01:44:18;;;;;;;3.60;1.00;;;9.40;99.90;;;;;;5039742;28;20059;-65
2023/12/12 01:46:46;;;;;;;2.58;1.05;;;9.40;99.90;;;;;;5041325;28;20072;-65
2023/12/12 01:49:13;;;;;;;3.08;1.17;;;9.50;99.90;;;;;;5039131;28;20037;-65
2023/12/12 01:51:39;;;;;;;2.42;1.23;;;9.40;99.90;;;;;;5041894;28;20044;-65
2023/12/12 01:54:06;;;;;;;2.78;1.30;;;9.40;99.90;;;;;;5047901;28;20445;-65
2023/12/12 01:56:34;;;;;;;2.35;1.20;;;9.40;99.90;;;;;;5047709;28;20048;-64
2023/12/12 01:59:01;;;;;;;6.53;1.38;;;9.40;99.90;;;;;;5047919;28;20106;-65
2023/12/12 02:01:27;;;;;;;4.57;1.23;;;9.30;99.90;;;;;;5043137;28;20033;-65
2023/12/12 02:03:56;;;;;;;2.13;1.00;;;9.40;99.90;;;;;;5038559;28;20397;-65
2023/12/12 02:06:24;;;;;;;3.08;1.35;;;9.30;99.90;;;;;;5042964;28;20070;-65
2023/12/12 02:08:54;;;;;;;3.55;1.10;;;9.30;99.90;;;;;;5036034;28;20040;-65
2023/12/12 02:11:21;;;;;;;2.22;0.80;;;9.30;99.90;;;;;;5046933;28;20028;-65
2023/12/12 02:13:48;;;;;;;4.38;1.10;;;9.30;99.90;;;;;;5041276;28;20033;-65
2023/12/12 02:16:14;;;;;;;1.90;1.05;;;9.30;99.90;;;;;;5046751;28;20128;-65
2023/12/12 02:18:40;;;;;;;4.32;0.90;;;9.30;99.90;;;;;;5039419;28;20032;-65
2023/12/12 02:21:06;;;;;;;1.92;0.90;;;9.30;99.90;;;;;;5045813;28;20597;-65
2023/12/12 02:23:32;;;;;;;0.90;0.75;;;9.30;99.90;;;;;;5044920;28;20029;-65
2023/12/12 02:25:59;;;;;;;0.98;0.60;;;9.30;99.90;;;;;;5043943;28;20029;-65
2023/12/12 02:28:26;;;;;;;0.77;0.77;;;9.30;99.90;;;;;;5046564;28;20037;-65
2023/12/12 02:30:52;;;;;;;3.92;0.75;;;9.30;99.90;;;;;;5045561;28;20067;-65
2023/12/12 02:33:18;;;;;;;2.70;0.82;;;9.30;99.90;;;;;;5046895;28;20078;-65
2023/12/12 02:35:43;;;;;;;2.03;1.00;;;9.30;99.90;;;;;;5040353;28;20041;-65
2023/12/12 02:38:09;;;;;;;2.22;1.00;;;9.30;99.90;;;;;;5040825;28;20115;-65
2023/12/12 02:40:35;;;;;;;1.48;1.00;;;9.30;99.90;;;;;;5043148;28;20033;-65
2023/12/12 02:43:01;;;;;;;4.97;1.60;;;9.30;99.90;;;;;;5041109;28;20108;-65
2023/12/12 02:45:27;;;;;;;3.65;1.23;;;9.30;99.90;;;;;;5035264;28;20028;-65
2023/12/12 02:47:53;;;;;;;4.22;1.15;;;9.30;99.90;;;;;;5041761;28;20033;-65
2023/12/12 02:50:19;;;;;;;4.55;1.27;;;9.30;99.90;;;;;;5042081;28;20434;-64
2023/12/12 02:52:45;;;;;;;4.40;1.30;;;9.30;99.90;;;;;;5041457;28;20390;-65
2023/12/12 02:55:11;;;;;;;2.67;1.00;;;9.30;99.90;;;;;;5039672;28;20041;-65
2023/12/12 02:57:37;;;;;;;1.65;1.00;;;9.30;99.90;;;;;;5038797;28;20550;-65
2023/12/12 03:00:03;;;;;;;1.63;0.90;;;9.30;99.90;;;;;;5046065;28;20044;-65
2023/12/12 03:02:30;;;;;;;5.43;1.30;;;9.30;99.90;;;;;;5046345;28;20033;-64
2023/12/12 03:04:57;;;;;;;1.63;1.10;;;9.30;99.90;;;;;;5036559;28;20029;-65
2023/12/12 03:07:23;;;;;;;1.60;1.50;;;9.30;99.90;;;;;;5044060;28;20053;-65
2023/12/12 03:09:49;;;;;;;9.00;1.98;;;9.30;99.90;;;;;;5046813;28;20106;-65
2023/12/12 03:12:15;;;;;;;2.10;1.58;;;9.30;99.90;;;;;;5046208;28;20033;-65
2023/12/12 03:14:41;;;;;;;3.55;1.80;;;9.30;99.90;;;;;;5046086;28;20052;-65
2023/12/12 03:17:07;;;;;;;2.85;1.50;;;9.30;99.90;;;;;;5043997;28;20071;-65
2023/12/12 03:19:33;;;;;;;3.20;1.10;;;9.30;99.90;;;;;;5045615;28;20025;-65
2023/12/12 03:21:59;;;;;;;1.60;0.98;;;9.30;99.90;;;;;;5045056;28;20040;-65
2023/12/12 03:24:25;;;;;;;2.80;1.02;;;9.30;99.90;;;;;;5045869;28;20032;-65
2023/12/12 03:26:51;;;;;;;3.00;1.38;;;9.30;99.90;;;;;;5043095;28;20503;-65
2023/12/12 03:29:17;;;;;;;2.20;1.38;;;9.30;99.90;;;;;;5045233;28;20087;-65
2023/12/12 03:31:43;;;;;;;3.75;1.27;;;9.20;99.90;;;;;;5045704;28;20047;-65
2023/12/12 03:34:09;;;;;;;1.80;1.10;;;9.30;99.90;;;;;;5045428;28;20033;-65
2023/12/12 03:36:35;;;;;;;4.00;1.27;;;9.20;99.90;;;;;;5042668;28;20045;-65
2023/12/12 03:39:02;;;;;;;1.50;1.00;;;9.20;99.90;;;;;;5045105;28;20502;-65
2023/12/12 03:41:29;;;;;;;3.05;0.90;;;9.20;99.90;;;;;;5044007;28;20032;-65
2023/12/12 03:43:54;;;;;;;6.32;1.50;;;9.10;99.90;;;;;;5043028;28;20212;-65
2023/12/12 03:46:21;;;;;;;7.30;2.38;;;9.10;99.90;;;;;;5045553;28;20563;-65
2023/12/12 03:48:46;;;;;;;2.97;1.83;;;9.10;99.90;;;;;;5045329;28;20485;-65
2023/12/12 03:51:13;;;;;;;3.03;1.33;;;9.10;99.90;;;;;;5040187;28;20115;-65
2023/12/12 03:53:39;;;;;;;3.88;1.30;;;9.00;99.90;;;;;;5039623;28;20112;-65
2023/12/12 03:56:06;;;;;;;2.30;0.80;;;9.10;99.90;;;;;;5040587;28;20116;-65
2023/12/12 03:58:32;;;;;;;4.25;1.33;;;9.10;99.90;;;;;;5045178;28;20029;-65
2023/12/12 04:00:58;;;;;;;2.25;0.90;;;9.10;99.90;;;;;;5037959;28;20516;-65
2023/12/12 04:03:24;;;;;;;2.10;0.63;;;9.10;99.90;;;;;;5041377;28;20030;-65
2023/12/12 04:05:50;;;;;;;2.13;1.00;;;9.10;99.90;;;;;;5040400;28;20056;-64
2023/12/12 04:08:16;;;;;;;1.05;0.93;;;9.10;99.90;;;;;;5044823;28;20040;-65
2023/12/12 04:10:42;;;;;;;3.35;1.17;;;9.10;99.90;;;;;;5043301;28;20036;-65
2023/12/12 04:13:07;;;;;;;3.72;1.48;;;9.00;99.90;;;;;;5035623;28;20054;-65
2023/12/12 04:15:33;;;;;;;4.53;1.58;;;9.00;99.90;;;;;;5043588;28;20037;-65
2023/12/12 04:17:59;;;;;;;3.22;1.40;;;9.00;99.90;;;;;;5044657;28;20029;-65
2023/12/12 04:20:25;;;;;;;2.75;1.60;;;9.10;99.90;;;;;;5038065;28;20029;-65
2023/12/12 04:22:51;;;;;;;2.95;1.42;;;9.10;99.90;;;;;;5031072;28;20500;-65
2023/12/12 04:25:17;;;;;;;1.92;1.10;;;9.10;99.90;;;;;;5044535;28;20049;-65
2023/12/12 04:27:43;;;;;;;4.70;1.55;;;9.10;99.90;;;;;;5044859;28;20039;-65
2023/12/12 04:30:09;;;;;;;3.58;1.92;;;9.10;99.90;;;;;;5035155;28;20029;-65
2023/12/12 04:32:35;;;;;;;3.97;1.77;;;9.10;99.90;;;;;;5037429;28;20037;-64
2023/12/12 04:35:01;;;;;;;2.22;1.55;;;9.10;99.90;;;;;;5040224;28;20805;-65
2023/12/12 04:37:27;;;;;;;1.77;1.10;;;9.00;99.90;;;;;;5041571;28;20099;-65
2023/12/12 04:39:54;;;;;;;2.75;1.92;;;9.10;99.90;;;;;;5043723;28;20040;-65
2023/12/12 04:42:20;;;;;;;1.30;1.20;;;9.10;99.90;;;;;;5036119;28;20068;-65
2023/12/12 04:44:46;;;;;;;2.58;1.20;;;9.00;99.90;;;;;;5042708;28;20045;-65
2023/12/12 04:47:13;;;;;;;1.95;1.08;;;9.00;99.90;;;;;;5039626;28;20557;-65
2023/12/12 04:49:38;;;;;;;2.70;1.00;;;9.00;99.90;;;;;;5044152;28;20036;-65
2023/12/12 04:52:05;;;;;;;5.60;1.38;;;9.00;99.90;;;;;;5038259;28;20044;-65
2023/12/12 04:54:31;;;;;;;2.75;0.90;;;9.00;99.90;;;;;;5038276;28;20139;-64
2023/12/12 04:56:57;;;;;;;1.38;1.02;;;9.00;99.90;;;;;;5041355;28;20739;-65
2023/12/12 04:59:23;;;;;;;2.35;0.80;;;9.00;99.90;;;;;;5042466;28;20724;-65
2023/12/12 05:01:49;;;;;;;1.80;0.80;;;9.00;99.90;;;;;;5038331;28;20030;-65
2023/12/12 05:04:15;;;;;;;1.98;0.80;;;9.00;99.90;;;;;;5037926;28;20034;-64
2023/12/12 05:06:41;;;;;;;2.58;0.93;;;9.00;99.90;;;;;;5038208;28;20029;-65
2023/12/12 05:09:08;;;;;;;2.83;1.25;;;9.00;99.90;;;;;;5036666;28;20120;-65
2023/12/12 05:11:34;;;;;;;2.03;0.90;;;9.00;99.90;;;;;;5044213;28;20847;-65
2023/12/12 05:14:00;;;;;;;3.35;0.95;;;9.00;99.90;;;;;;5040702;28;20112;-65
2023/12/12 05:16:26;;;;;;;1.52;1.10;;;9.00;99.90;;;;;;5044221;28;20037;-65
2023/12/12 05:18:54;;;;;;;2.47;1.60;;;9.00;99.90;;;;;;5044321;28;20033;-65
2023/12/12 05:21:21;;;;;;;2.97;1.40;;;9.00;99.90;;;;;;5038099;28;20035;-65
2023/12/12 05:23:50;;;;;;;1.65;1.17;;;9.00;99.90;;;;;;5044240;28;20040;-65
2023/12/12 05:26:18;;;;;;;3.55;1.58;;;9.00;99.90;;;;;;5044067;28;20021;-65
2023/12/12 05:28:44;;;;;;;4.68;1.40;;;9.00;99.90;;;;;;5043715;28;20103;-65
2023/12/12 05:31:10;;;;;;;5.03;1.73;;;9.00;99.90;;;;;;5033077;28;20042;-64
2023/12/12 05:33:36;;;;;;;3.65;1.67;;;9.00;99.90;;;;;;5043892;28;20040;-65
2023/12/12 05:36:02;;;;;;;3.70;1.33;;;9.00;99.90;;;;;;5035255;28;20033;-65
2023/12/12 05:38:28;;;;;;;1.75;1.45;;;9.00;99.90;;;;;;5042573;28;20778;-65
2023/12/12 05:40:54;;;;;;;2.22;1.50;;;8.90;99.90;;;;;;5043879;28;20059;-65
2023/12/12 05:43:20;;;;;;;4.80;1.35;;;8.90;99.90;;;;;;5039343;28;20428;-65
2023/12/12 05:45:47;;;;;;;4.10;1.33;;;8.90;99.90;;;;;;5041432;28;20033;-65
2023/12/12 05:48:13;;;;;;;3.05;1.10;;;8.90;99.90;;;;;;5047442;28;20024;-65
2023/12/12 05:50:39;;;;;;;2.58;1.40;;;8.90;99.90;;;;;;5047219;28;20048;-65
2023/12/12 05:53:05;;;;;;;3.50;1.60;;;8.90;99.90;;;;;;5038714;28;20033;-65
2023/12/12 05:55:30;;;;;;;5.90;1.52;;;8.90;99.90;;;;;;5047325;28;20136;-65
2023/12/12 05:57:56;;;;;;;4.30;2.15;;;8.80;99.90;;;;;;5044154;28;20037;-65
2023/12/12 06:00:22;;;;;;;2.58;2.20;;;8.80;99.90;;;;;;5046952;28;20037;-65
2023/12/12 06:02:48;;;;;;;4.32;3.47;;;8.90;99.90;;;;;;5046398;28;20040;-65
2023/12/12 06:05:14;;;;;;;4.15;2.92;;;8.90;99.90;;;;;;5040674;28;20059;-65
2023/12/12 06:07:42;;;;;;;6.85;3.40;;;8.90;99.90;;;;;;5044550;28;20068;-65
2023/12/12 06:10:08;;;;;;;8.45;5.50;;;8.90;99.90;;;;;;5045465;28;20041;-65
2023/12/12 06:12:34;;;;;;;4.63;4.05;;;8.90;99.90;;;;;;5041147;28;20116;-65
2023/12/12 06:15:01;;;;;;;5.43;2.60;;;8.90;99.90;;;;;;5043274;28;20033;-65
2023/12/12 06:17:26;;;;;;;3.00;1.90;;;8.90;99.90;;;;;;5046790;28;20071;-65
2023/12/12 06:19:52;;;;;;;4.30;1.30;;;8.90;99.90;;;;;;5036244;28;20120;-65
2023/12/12 06:22:18;;;;;;;3.35;1.73;;;8.90;99.90;;;;;;5046667;28;20021;-65
2023/12/12 06:24:45;;;;;;;1.83;1.40;;;8.90;99.90;;;;;;5047122;28;20099;-65
2023/12/12 06:27:12;;;;;;;1.75;1.35;;;8.90;99.90;;;;;;5046857;28;20033;-64
2023/12/12 06:29:38;;;;;;;8.10;1.75;;;8.90;99.90;;;;;;5040748;28;20120;-65
2023/12/12 06:32:04;;;;;;;4.57;1.70;;;8.90;99.90;;;;;;5038085;28;20120;-65
2023/12/12 06:34:30;;;;;;;3.85;2.20;;;8.90;99.90;;;;;;5040492;28;20690;-64
2023/12/12 06:36:56;;;;;;;5.38;1.40;;;8.90;99.90;;;;;;5046965;28;20037;-65
2023/12/12 06:39:22;;;;;;;5.85;1.80;;;8.90;99.90;;;;;;5038232;28;20124;-65
2023/12/12 06:41:48;;;;;;;6.72;1.52;;;8.90;99.90;;;;;;5039456;28;20048;-65
2023/12/12 06:44:13;;;;;;;2.38;1.38;;;8.90;99.90;;;;;;5046440;28;20025;-65
2023/12/12 06:46:39;;;;;;;4.40;1.50;;;8.90;99.90;;;;;;5046321;28;20939;-65
2023/12/12 06:49:08;;;;;;;4.95;1.40;;;8.90;99.90;;;;;;5042794;28;20040;-65
2023/12/12 06:51:35;;;;;;;2.25;1.38;;;8.90;99.90;;;;;;5046172;28;20032;-65
2023/12/12 06:54:01;;;;;;;2.97;1.30;;;8.80;99.90;;;;;;5046376;28;20120;-64
2023/12/12 06:56:27;;;;;;;2.35;1.83;;;8.80;99.90;;;;;;5045561;28;20116;-65
2023/12/12 06:58:53;;;;;;;2.67;1.73;;;8.90;99.90;;;;;;5046080;28;20029;-65
2023/12/12 07:01:18;;;;;;;4.68;1.92;;;8.90;99.90;;;;;;5045317;28;20032;-65
2023/12/12 07:03:44;;;;;;;1.83;1.45;;;8.90;99.90;;;;;;5045948;28;20033;-65
2023/12/12 07:06:10;;;;;;;3.85;1.77;;;8.90;99.90;;;;;;5044819;28;20480;-65
2023/12/12 07:08:36;;;;;;;3.28;1.35;;;8.90;99.90;;;;;;5036643;28;20037;-64
2023/12/12 07:11:02;;;;;;;3.45;2.00;;;8.90;99.90;;;;;;5043092;28;20037;-64
2023/12/12 07:13:29;;;;;;;8.73;4.28;;;8.90;99.90;;;;;;5045801;28;20505;-65
2023/12/12 07:15:54;;;;;;;10.52;5.22;;;8.90;99.90;;;;;;5045693;28;20666;-65
2023/12/12 07:18:20;;;;;;;8.85;4.10;;;8.90;99.90;;;;;;5045428;28;20029;-65
2023/12/12 07:20:46;;;;;;;12.30;6.30;;;8.90;99.90;;;;;;5040543;28;20033;-65
2023/12/12 07:23:12;;;;;;;10.27;4.55;;;8.90;99.90;;;;;;5045667;28;20036;-65
2023/12/12 07:25:38;;;;;;;7.75;4.30;;;8.80;99.90;;;;;;5044635;28;20153;-65
2023/12/12 07:28:04;;;;;;;7.20;3.25;;;8.80;99.90;;;;;;5045460;28;20112;-65
2023/12/12 07:30:32;;;;;;;10.00;4.25;;;8.70;99.90;;;;;;5044070;28;20041;-65
2023/12/12 07:32:58;;;;;;;15.15;5.75;;;8.60;99.90;;;;;;5045737;28;20060;-65
2023/12/12 07:35:24;;;;;;;5.63;3.60;;;8.70;99.90;;;;;;5033815;28;20069;-65
2023/12/12 07:37:50;;;;;;;7.25;3.10;;;8.60;99.90;;;;;;5039702;28;20041;-64
2023/12/12 07:40:17;;;;;;;7.60;3.42;;;8.60;99.90;;;;;;5045686;28;20031;-65
2023/12/12 07:42:44;;;;;;;15.43;5.30;;;8.60;99.90;;;;;;5042298;28;20064;-65
2023/12/12 07:45:10;;;;;;;13.27;6.85;;;8.60;99.90;;;;;;5044478;28;20460;-65
2023/12/12 07:47:36;;;;;;;13.15;6.88;;;8.60;99.90;;;;;;5045372;28;20039;-65
2023/12/12 07:50:05;;;;;;;10.05;6.05;;;8.60;99.90;;;;;;5045512;28;20068;-65
2023/12/12 07:52:32;;;;;;;7.88;4.90;;;8.60;99.90;;;;;;5034136;28;20078;-65
2023/12/12 07:54:58;;;;;;;8.68;5.40;;;8.60;99.90;;;;;;5044524;28;20037;-65
2023/12/12 07:57:24;;;;;;;11.20;5.82;;;8.70;99.90;;;;;;5045223;28;20044;-65
2023/12/12 07:59:50;;;;;;;10.75;4.72;;;8.70;99.90;;;;;;5045266;28;20041;-65
2023/12/12 08:02:16;;;;;;;9.30;5.00;;;8.70;99.90;;;;;;5045387;28;20053;-65
2023/12/12 08:04:42;;;;;;;23.75;9.95;;;8.70;99.90;;;;;;5045320;28;20683;-64
2023/12/12 08:07:08;;;;;;;34.05;14.23;;;8.70;99.90;;;;;;5036155;28;20057;-65
2023/12/12 08:09:35;;;;;;;19.25;8.30;;;8.70;99.90;;;;;;5037943;28;20048;-65
2023/12/12 08:12:01;;;;;;;12.93;4.25;;;8.70;99.90;;;;;;5044637;28;20677;-65
2023/12/12 08:14:26;;;;;;;8.00;3.90;;;8.60;99.90;;;;;;5039273;28;20036;-65
2023/12/12 08:16:53;;;;;;;13.88;5.47;;;8.60;99.90;;;;;;5044643;28;20036;-65
2023/12/12 08:19:20;;;;;;;8.30;3.85;;;8.70;99.90;;;;;;5037303;28;20037;-65
2023/12/12 08:21:46;;;;;;;11.30;5.28;;;8.70;99.90;;;;;;5033608;28;20107;-65
2023/12/12 08:24:15;;;;;;;10.27;4.75;;;8.70;99.90;;;;;;5042091;28;20032;-65
2023/12/12 08:26:46;;;;;;;10.48;5.50;;;8.70;99.90;;;;;;5041232;28;20037;-65
2023/12/12 08:29:16;;;;;;;6.47;4.18;;;8.50;99.90;;;;;;5044345;28;20025;-65
2023/12/12 08:31:42;;;;;;;12.73;7.75;;;8.50;99.90;;;;;;5032668;28;20080;-65
2023/12/12 08:34:08;;;;;;;6.03;4.15;;;8.50;99.90;;;;;;5033471;28;20033;-65
2023/12/12 08:36:34;;;;;;;9.65;5.10;;;8.40;99.90;;;;;;5044542;28;20110;-65
2023/12/12 08:39:00;;;;;;;11.20;5.50;;;8.30;99.90;;;;;;5044117;28;20374;-65
2023/12/12 08:41:28;;;;;;;13.75;10.77;;;8.40;99.90;;;;;;5041303;28;20067;-65
2023/12/12 08:43:54;;;;;;;11.55;5.60;;;8.40;99.90;;;;;;5038267;28;20048;-65
2023/12/12 08:46:26;;;;;;;7.45;3.97;;;8.50;99.90;;;;;;5044158;28;20873;-65
2023/12/12 08:48:56;;;;;;;13.30;4.88;;;8.60;99.90;;;;;;5044254;28;20035;-65
2023/12/12 08:51:23;;;;;;;13.50;4.82;;;8.60;99.90;;;;;;5036531;28;20036;-65
2023/12/12 08:53:49;;;;;;;8.77;4.18;;;8.70;99.90;;;;;;5044492;28;20033;-65
2023/12/12 08:56:16;;;;;;;8.77;5.57;;;8.80;99.90;;;;;;5043521;28;20509;-65
2023/12/12 08:58:47;;;;;;;9.13;4.47;;;8.80;99.90;;;;;;5039075;28;20040;-65
2023/12/12 09:01:14;;;;;;;12.27;4.00;;;8.90;99.90;;;;;;5042049;28;20032;-65
2023/12/12 09:03:40;;;;;;;5.80;2.67;;;8.90;99.90;;;;;;5038189;28;20051;-65
2023/12/12 09:06:06;;;;;;;5.85;2.25;;;8.90;99.90;;;;;;5044232;28;20045;-65
2023/12/12 09:08:32;;;;;;;3.63;2.00;;;9.00;99.90;;;;;;5032629;28;20116;-65
2023/12/12 09:10:59;;;;;;;9.85;2.22;;;9.00;99.90;;;;;;5033584;28;20120;-65
2023/12/12 09:13:25;;;;;;;8.75;2.50;;;9.00;99.90;;;;;;5044141;28;20069;-65
2023/12/12 09:15:51;;;;;;;7.53;2.50;;;9.10;99.90;;;;;;5042536;28;20036;-65
2023/12/12 09:18:17;;;;;;;5.55;2.75;;;9.20;99.90;;;;;;5043633;28;20098;-65
2023/12/12 09:20:43;;;;;;;4.43;2.30;;;9.30;99.90;;;;;;5036341;28;20087;-65
2023/12/12 09:23:09;;;;;;;3.58;1.73;;;9.30;99.90;;;;;;5046806;28;20037;-65
2023/12/12 09:25:35;;;;;;;1.85;1.48;;;9.30;99.90;;;;;;5046973;28;20029;-65
2023/12/12 09:28:01;;;;;;;4.45;1.50;;;9.40;99.90;;;;;;5048194;28;20044;-65
2023/12/12 09:30:27;;;;;;;9.93;3.63;;;9.40;99.90;;;;;;5048000;28;20033;-66
2023/12/12 09:32:53;;;;;;;16.67;6.25;;;9.50;99.90;;;;;;5027201;28;20037;-64
2023/12/12 09:35:19;;;;;;;18.02;7.38;;;9.60;99.90;;;;;;5030670;28;20404;-65
2023/12/12 09:37:44;;;;;;;13.27;5.03;;;9.60;99.90;;;;;;5035686;28;20037;-65
2023/12/12 09:40:11;;;;;;;6.93;4.20;;;9.60;99.90;;;;;;5044805;28;20590;-65
2023/12/12 09:42:39;;;;;;;6.80;3.05;;;9.70;99.90;;;;;;5047000;28;20248;-65
2023/12/12 09:45:14;;;;;;;7.25;2.78;;;9.70;99.90;;;;;;5047636;28;20516;-65
2023/12/12 09:47:42;;;;;;;5.30;3.30;;;9.80;99.90;;;;;;5046869;28;20497;-65
2023/12/12 09:50:12;;;;;;;14.23;7.50;;;9.80;99.90;;;;;;5046850;28;20044;-65
2023/12/12 09:52:39;;;;;;;24.33;13.40;;;9.90;99.90;;;;;;5045939;28;20135;-65
2023/12/12 09:55:06;;;;;;;15.88;8.95;;;10.00;99.90;;;;;;5029836;28;20053;-65
2023/12/12 09:57:35;;;;;;;6.88;5.63;;;10.00;99.90;;;;;;5042973;28;20029;-65
2023/12/12 10:00:02;;;;;;;6.63;4.65;;;10.00;99.90;;;;;;5033730;28;20041;-65
2023/12/12 10:02:37;;;;;;;9.35;4.35;;;10.00;99.90;;;;;;5041130;28;20087;-65
2023/12/12 10:05:04;;;;;;;9.27;5.35;;;10.00;99.90;;;;;;5047225;28;20034;-65
2023/12/12 10:07:31;;;;;;;7.25;2.45;;;10.40;99.90;;;;;;5038810;28;20060;-64
2023/12/12 10:09:59;;;;;;;6.57;2.47;;;10.60;99.90;;;;;;5036317;28;20084;-64
2023/12/12 10:12:24;;;;;;;2.40;1.48;;;10.40;99.90;;;;;;5039094;28;20039;-64
2023/12/12 10:14:51;;;;;;;3.70;1.58;;;10.20;99.90;;;;;;5046835;28;20037;-65
2023/12/12 10:17:17;;;;;;;7.80;3.05;;;9.90;99.90;;;;;;5046073;28;20033;-65
2023/12/12 10:19:43;;;;;;;8.88;4.30;;;10.00;99.90;;;;;;5041116;28;20507;-65
2023/12/12 10:22:10;;;;;;;10.07;2.50;;;11.30;99.90;;;;;;5041141;28;20030;-64
2023/12/12 10:24:37;;;;;;;7.70;3.35;;;13.20;99.90;;;;;;5045371;28;20079;-64
2023/12/12 10:27:03;;;;;;;6.75;2.30;;;14.90;98.30;;;;;;5046345;28;20025;-65
2023/12/12 10:29:31;;;;;;;5.57;3.63;;;16.20;94.30;;;;;;5037732;28;20131;-65
2023/12/12 10:32:02;;;;;;;9.70;4.40;;;17.60;91.30;;;;;;5035474;28;20033;-65
2023/12/12 10:34:28;;;;;;;9.18;3.38;;;19.00;86.10;;;;;;5046814;28;20119;-65
2023/12/12 10:36:57;;;;;;;8.13;3.65;;;20.20;78.70;;;;;;5041887;28;20087;-65
2023/12/12 10:39:23;;;;;;;6.40;2.78;;;21.00;76.50;;;;;;5041795;28;20037;-65
2023/12/12 10:41:54;;;;;;;8.50;3.85;;;21.00;75.40;;;;;;5046045;28;20029;-65
2023/12/12 10:44:25;;;;;;;5.80;3.00;;;20.30;72.40;;;;;;5040105;28;20567;-65
2023/12/12 10:46:54;;;;;;;15.50;4.63;;;19.20;75.80;;;;;;5039471;28;20041;-65
2023/12/12 10:49:33;;;;;;;11.00;4.65;;;18.20;78.40;;;;;;5038233;28;20024;-65
2023/12/12 10:52:05;;;;;;;6.53;2.35;;;17.60;81.40;;;;;;5032012;28;20029;-65
2023/12/12 10:54:35;;;;;;;9.23;3.10;;;16.90;83.40;;;;;;5045886;28;20485;-65
2023/12/12 10:57:05;;;;;;;16.15;4.20;;;16.00;86.30;;;;;;5043496;28;20032;-65
2023/12/12 10:59:34;;;;;;;7.75;2.83;;;15.10;90.10;;;;;;5044971;28;20032;-65
2023/12/12 11:02:01;;;;;;;6.75;2.10;;;14.30;92.00;;;;;;5044149;28;20397;-66
2023/12/12 11:04:27;;;;;;;4.55;1.80;;;13.70;93.70;;;;;;5046126;28;20108;-65
2023/12/12 11:06:53;;;;;;;2.67;1.65;;;13.20;95.20;;;;;;5045707;28;20056;-66
2023/12/12 11:09:19;;;;;;;4.10;1.70;;;12.70;96.00;;;;;;5040146;28;20035;-65
2023/12/12 11:11:48;;;;;;;3.20;1.85;;;12.40;97.70;;;;;;5045563;28;20056;-65
2023/12/12 11:14:16;;;;;;;11.90;3.72;;;12.10;99.70;;;;;;5045931;28;20043;-65
2023/12/12 11:16:47;;;;;;;76.80;28.85;;;11.90;99.90;;;;;;5045291;28;20037;-65
2023/12/12 11:19:17;;;;;;;44.42;15.85;;;11.70;99.90;;;;;;5043404;28;20035;-64
2023/12/12 11:21:49;;;;;;;24.38;9.52;;;11.50;99.90;;;;;;5033166;28;20034;-65
2023/12/12 11:24:17;;;;;;;78.45;24.92;;;11.40;99.90;;;;;;5045163;28;20029;-64
2023/12/12 11:26:46;;;;;;;50.28;15.98;;;11.30;99.90;;;;;;5040181;28;20084;-65
2023/12/12 11:29:16;;;;;;;25.65;12.23;;;11.20;99.90;;;;;;5045969;28;20060;-66
2023/12/12 11:32:03;;;;;;;14.48;6.95;;;11.20;99.90;;;;;;5045616;28;20130;-65
2023/12/12 11:34:41;;;;;;;50.50;15.73;;;11.20;99.90;;;;;;5040686;28;20044;-65
2023/12/12 11:37:08;;;;;;;25.38;9.20;;;11.10;99.90;;;;;;5045124;28;20504;-65
2023/12/12 11:39:49;;;;;;;119.88;26.83;;;11.00;99.90;;;;;;5034677;28;20072;-65
2023/12/12 11:42:24;;;;;;;12.25;4.75;;;10.90;99.90;;;;;;5043805;28;20746;-65
2023/12/12 11:44:55;;;;;;;17.25;6.75;;;10.90;99.90;;;;;;5044925;28;20041;-65
2023/12/12 11:47:24;;;;;;;8.02;3.85;;;10.80;99.90;;;;;;5034315;28;20638;-66
2023/12/12 11:50:10;;;;;;;7.18;2.65;;;10.80;99.90;;;;;;5045239;28;20037;-66
2023/12/12 11:52:38;;;;;;;16.55;5.88;;;10.80;99.90;;;;;;5038350;28;20041;-66
2023/12/12 11:55:08;;;;;;;9.35;3.97;;;10.70;99.90;;;;;;5039233;28;20040;-66
2023/12/12 11:57:34;;;;;;;9.63;2.60;;;10.70;99.90;;;;;;5037865;28;20087;-66
2023/12/12 12:00:01;;;;;;;7.63;3.05;;;10.60;99.90;;;;;;5044812;28;20432;-66
2023/12/12 12:02:27;;;;;;;15.18;5.20;;;10.70;99.90;;;;;;5044959;28;20033;-65
2023/12/12 12:04:53;;;;;;;12.48;4.47;;;10.70;99.90;;;;;;5045266;28;20124;-65
2023/12/12 12:07:19;;;;;;;16.75;4.55;;;10.70;99.90;;;;;;5041032;28;20041;-65
2023/12/12 12:09:50;;;;;;;19.25;4.97;;;10.80;99.90;;;;;;5044877;28;20067;-66
2023/12/12 12:12:17;;;;;;;14.70;4.93;;;10.80;99.90;;;;;;5042214;28;20056;-66
2023/12/12 12:14:43;;;;;;;10.43;5.40;;;10.80;99.90;;;;;;5042731;28;20094;-66
2023/12/12 12:17:09;;;;;;;7.60;3.63;;;10.80;99.90;;;;;;5035592;28;20065;-66
2023/12/12 12:19:37;;;;;;;10.55;2.80;;;10.80;99.90;;;;;;5044432;28;20262;-66
2023/12/12 12:22:10;;;;;;;12.30;4.20;;;10.70;99.90;;;;;;5043645;28;20048;-66
2023/12/12 12:24:43;;;;;;;8.95;3.63;;;10.60;99.90;;;;;;5038666;28;20110;-65
2023/12/12 12:27:09;;;;;;;15.45;4.72;;;10.50;99.90;;;;;;5043991;28;20500;-66
2023/12/12 12:29:35;;;;;;;12.40;3.30;;;10.50;99.90;;;;;;5044342;28;20029;-66
2023/12/12 12:32:13;;;;;;;7.72;2.50;;;10.50;99.90;;;;;;5037578;28;20515;-66
2023/12/12 12:34:40;;;;;;;6.63;1.90;;;10.40;99.90;;;;;;5044830;28;20115;-66
2023/12/12 12:37:06;;;;;;;4.18;1.58;;;10.40;99.90;;;;;;5043977;28;20041;-66
2023/12/12 12:39:43;;;;;;;3.92;1.33;;;10.40;99.90;;;;;;5044405;28;20216;-66
2023/12/12 12:42:09;;;;;;;7.38;2.45;;;10.40;99.90;;;;;;5038978;28;20048;-65
2023/12/12 12:44:37;;;;;;;5.63;1.85;;;10.40;99.90;;;;;;5035634;28;20568;-66
2023/12/12 12:47:03;;;;;;;6.68;1.73;;;10.40;99.90;;;;;;5038412;28;20033;-65
2023/12/12 12:49:29;;;;;;;5.72;1.35;;;10.40;99.90;;;;;;5044125;28;20557;-65
2023/12/12 12:51:54;;;;;;;4.05;1.15;;;10.40;99.90;;;;;;5035573;28;20040;-66